CMB815 Details

Departure: Daniel K Inouye International Airport (PHNL)
Arrival: Alice Springs Airport (YBAS)
Route: NDJ A222 UKS TASAK B589 TEDED B589A KAPKI KAPSO R210 CS J64 AS
Notes: USTRANSCOM CONTRACT FLIGHT


Current Weather Information
PHNL 260953Z 07011KT 10SM CLR 23/17 A3009 RMK AO2 SLP190 T02330172 402780222
YBAS 261030Z AUTO 14011KT 9999 // ////// 24/05 Q1018 RF00.0/000.0